Terminal Aerodrome Forecast
Issued by NWS Albany, NY

Home | Current Version | Previous Version | Text Only | Print | Product List | Glossary On
Versions: 1 2 3 4 5 6 7 8 9 10 11 12 13 14 15 16 17 18 19 20 21
000
FTUS41 KALY 281000 AAC
TAFALB
TAF AMD
KALB 281056Z 2811/2906 11003KT 2SM -RA BR SCT008 BKN040 OVC050
     FM281200 15005KT P6SM VCSH BKN045 BKN090
     FM281600 15007KT 5SM -SHRA BR BKN040 BKN090
     FM282100 27013G20KT P6SM BKN050=

USA.gov is the U.S. government's official web portal to all federal, state and local government web resources and services.